createdAt,value
2023-02-24T00:01:37.729Z,90.25
2023-02-24T00:04:08.433Z,90.08
2023-02-24T00:06:38.736Z,89.79
2023-02-24T00:09:11.716Z,89.67
2023-02-24T00:11:43.396Z,89.58
2023-02-24T00:14:15.888Z,89.92
2023-02-24T00:16:45.314Z,90.17
2023-02-24T00:19:16.287Z,90.26
2023-02-24T00:21:45.049Z,90.17
2023-02-24T00:24:14.475Z,90.21
2023-02-24T00:26:42.924Z,90.45
2023-02-24T00:29:13.548Z,90.11
2023-02-24T00:31:43.007Z,90.16
2023-02-24T00:34:13.618Z,90.32
2023-02-24T00:36:41.790Z,90.19
2023-02-24T00:39:10.798Z,90.37
2023-02-24T00:41:41.653Z,90.33
2023-02-24T00:44:11.788Z,89.95
2023-02-24T00:46:41.997Z,90.28
2023-02-24T00:49:13.227Z,90.66
2023-02-24T00:51:43.076Z,90.11
2023-02-24T00:54:14.823Z,90.80
2023-02-24T00:56:45.266Z,91.00
2023-02-24T00:59:14.552Z,91.15
2023-02-24T01:01:43.956Z,91.16
2023-02-24T01:04:12.739Z,90.82
2023-02-24T01:06:44.920Z,91.24
2023-02-24T01:09:14.760Z,91.51
2023-02-24T01:12:17.393Z,91.18
2023-02-24T01:14:47.609Z,91.78
2023-02-24T01:17:16.328Z,91.89
2023-02-24T01:19:44.774Z,92.20
2023-02-24T01:22:15.356Z,92.13
2023-02-24T01:24:45.425Z,92.18
2023-02-24T01:27:17.360Z,92.30
2023-02-24T01:29:45.410Z,92.91
2023-02-24T01:32:18.605Z,92.66
2023-02-24T01:34:47.291Z,92.96
2023-02-24T01:37:16.940Z,93.02
2023-02-24T01:39:46.384Z,92.99
2023-02-24T01:42:19.771Z,93.18
2023-02-24T01:45:22.753Z,92.98
2023-02-24T01:47:51.681Z,93.29
2023-02-24T01:50:23.906Z,93.73
2023-02-24T01:52:56.088Z,93.61
2023-02-24T01:55:29.171Z,93.78
2023-02-24T01:58:01.548Z,93.08
2023-02-24T02:00:37.488Z,93.77
2023-02-24T02:03:17.417Z,94.66
2023-02-24T02:05:48.519Z,95.20
2023-02-24T02:08:18.107Z,95.31
2023-02-24T02:10:46.776Z,95.39
2023-02-24T02:13:21.528Z,95.33
2023-02-24T02:16:02.866Z,95.00
2023-02-24T02:18:38.294Z,94.93
2023-02-24T02:21:40.261Z,94.68
2023-02-24T02:24:25.867Z,94.04
2023-02-24T02:27:12.141Z,94.25
2023-02-24T02:30:27.034Z,93.81
2023-02-24T02:33:21.533Z,93.40
2023-02-24T02:36:00.529Z,93.51
2023-02-24T02:38:37.129Z,93.02
2023-02-24T02:41:13.482Z,93.29
2023-02-24T02:43:49.050Z,92.96
2023-02-24T02:46:34.763Z,92.64
2023-02-24T02:49:12.808Z,92.72
2023-02-24T02:51:51.752Z,92.77
2023-02-24T02:54:27.364Z,92.71
2023-02-24T02:57:01.361Z,92.56
2023-02-24T02:59:33.281Z,92.41
2023-02-24T03:02:11.535Z,92.18
2023-02-24T03:04:43.513Z,91.91
2023-02-24T03:07:15.547Z,91.88
2023-02-24T03:09:49.547Z,91.64
2023-02-24T03:12:22.297Z,91.47
2023-02-24T03:14:53.542Z,90.79
2023-02-24T03:17:25.737Z,90.93
2023-02-24T03:20:01.764Z,91.05
2023-02-24T03:22:37.591Z,91.37
2023-02-24T03:25:06.663Z,90.85
2023-02-24T03:27:42.893Z,90.75
2023-02-24T03:30:17.805Z,90.80
2023-02-24T03:32:55.862Z,90.36
2023-02-24T03:35:27.308Z,90.51
2023-02-24T03:37:59.321Z,90.41
2023-02-24T03:40:36.210Z,90.65
2023-02-24T03:43:09.239Z,90.45
2023-02-24T03:45:39.387Z,90.30
2023-02-24T03:48:11.938Z,90.52
2023-02-24T03:50:40.920Z,90.57
2023-02-24T03:53:30.507Z,90.92
2023-02-24T03:56:05.868Z,90.68
2023-02-24T03:58:46.175Z,90.67
2023-02-24T04:01:21.390Z,90.30
2023-02-24T04:04:01.367Z,90.83
2023-02-24T04:06:35.278Z,90.64
2023-02-24T04:09:14.014Z,90.58
2023-02-24T04:11:48.742Z,90.54
2023-02-24T04:14:24.845Z,90.51
2023-02-24T04:17:01.022Z,91.03
2023-02-24T04:19:32.339Z,91.80
2023-02-24T04:22:01.721Z,91.63
2023-02-24T04:24:33.785Z,91.32
2023-02-24T04:27:06.374Z,90.90
2023-02-24T04:29:39.122Z,90.20
2023-02-24T04:32:09.784Z,89.64
2023-02-24T04:34:37.762Z,89.43
2023-02-24T04:37:06.336Z,89.40
2023-02-24T04:39:38.463Z,89.40
2023-02-24T04:42:06.679Z,89.42
2023-02-24T04:44:34.875Z,89.21
2023-02-24T04:47:03.849Z,88.95
2023-02-24T04:49:31.630Z,89.04
2023-02-24T04:51:59.340Z,88.97
2023-02-24T04:54:29.626Z,88.86
2023-02-24T04:56:59.488Z,88.70
2023-02-24T04:59:28.616Z,88.52
2023-02-24T05:02:01.360Z,88.43
2023-02-24T05:04:31.524Z,88.19
2023-02-24T05:06:59.369Z,88.32
2023-02-24T05:09:30.131Z,87.81
2023-02-24T05:12:00.408Z,87.85
2023-02-24T05:14:28.856Z,88.50
2023-02-24T05:17:00.303Z,88.15
2023-02-24T05:19:45.625Z,88.44
2023-02-24T05:22:14.389Z,88.00
2023-02-24T05:24:42.272Z,88.57
2023-02-24T05:27:11.359Z,88.77
2023-02-24T05:29:40.501Z,88.80
2023-02-24T05:32:08.493Z,88.71
2023-02-24T05:34:39.142Z,89.38
2023-02-24T05:37:10.194Z,89.54
2023-02-24T05:39:38.479Z,90.14
2023-02-24T05:42:07.300Z,90.75
2023-02-24T05:44:37.065Z,90.71
2023-02-24T05:47:05.787Z,90.39
2023-02-24T05:49:35.615Z,90.11
2023-02-24T05:52:08.158Z,90.76
2023-02-24T05:54:38.714Z,90.26
2023-02-24T05:57:09.006Z,89.73
2023-02-24T05:59:38.690Z,90.11
2023-02-24T06:02:09.408Z,90.62
2023-02-24T06:04:46.728Z,91.00
2023-02-24T06:07:19.007Z,90.53
2023-02-24T06:09:50.454Z,90.91
2023-02-24T06:12:19.568Z,91.17
2023-02-24T06:14:49.202Z,91.66
2023-02-24T06:17:18.711Z,92.11
2023-02-24T06:19:48.042Z,91.84
2023-02-24T06:22:19.103Z,92.38
2023-02-24T06:24:49.388Z,93.18
2023-02-24T06:27:19.890Z,93.62
2023-02-24T06:29:51.148Z,93.39
2023-02-24T06:32:19.913Z,93.20
2023-02-24T06:34:47.799Z,92.71
2023-02-24T06:37:18.277Z,92.56
2023-02-24T06:39:46.554Z,92.22
2023-02-24T06:42:14.925Z,92.01
2023-02-24T06:44:42.971Z,91.87
2023-02-24T06:47:14.816Z,91.20
2023-02-24T06:49:43.175Z,91.33
2023-02-24T06:52:18.315Z,91.09
2023-02-24T06:54:48.951Z,91.35
2023-02-24T06:57:16.701Z,91.11
2023-02-24T06:59:46.070Z,90.95
2023-02-24T07:02:17.595Z,91.17
2023-02-24T07:04:45.628Z,91.63
2023-02-24T07:07:14.810Z,91.45
2023-02-24T07:09:45.388Z,90.94
2023-02-24T07:12:13.621Z,90.93
2023-02-24T07:14:41.621Z,90.42
2023-02-24T07:17:10.338Z,90.30
2023-02-24T07:19:39.699Z,90.60
2023-02-24T07:22:07.486Z,91.20
2023-02-24T07:24:37.148Z,91.65
2023-02-24T07:27:07.500Z,91.97
2023-02-24T07:29:37.786Z,91.63
2023-02-24T07:32:08.639Z,92.09
2023-02-24T07:34:40.007Z,92.23
2023-02-24T07:37:10.802Z,92.60
2023-02-24T07:39:39.636Z,93.06
2023-02-24T07:42:08.972Z,93.32
2023-02-24T07:44:38.958Z,93.35
2023-02-24T07:47:08.068Z,92.89
2023-02-24T07:49:36.617Z,92.44
2023-02-24T07:52:08.150Z,92.20
2023-02-24T07:54:39.438Z,91.83
2023-02-24T07:57:13.553Z,92.05
2023-02-24T07:59:47.032Z,90.68
2023-02-24T08:02:15.415Z,90.52
2023-02-24T08:04:49.867Z,90.33
2023-02-24T08:07:17.924Z,89.75
2023-02-24T08:10:03.809Z,89.74
2023-02-24T08:12:34.400Z,89.18
2023-02-24T08:15:08.873Z,88.57
2023-02-24T08:17:36.654Z,88.45
2023-02-24T08:20:18.610Z,87.63
2023-02-24T08:22:47.640Z,87.40
2023-02-24T08:25:19.591Z,87.00
2023-02-24T08:28:06.879Z,87.22
2023-02-24T08:30:39.982Z,87.03
2023-02-24T08:33:10.370Z,85.93
2023-02-24T08:35:44.597Z,85.19
2023-02-24T08:38:15.511Z,84.45
2023-02-24T08:40:52.359Z,83.69
2023-02-24T08:43:32.699Z,83.30
2023-02-24T08:46:05.981Z,82.66
2023-02-24T08:48:38.522Z,82.58
2023-02-24T08:51:12.792Z,82.21
2023-02-24T08:53:41.455Z,81.29
2023-02-24T08:56:12.893Z,79.76
2023-02-24T08:58:47.036Z,79.47
2023-02-24T09:01:24.235Z,77.28
2023-02-24T09:03:55.437Z,76.99
2023-02-24T09:06:26.953Z,75.84
2023-02-24T09:09:11.833Z,73.79
2023-02-24T09:11:44.176Z,73.94
2023-02-24T09:14:32.217Z,73.72
2023-02-24T09:17:03.985Z,72.68
2023-02-24T09:20:01.970Z,73.42
2023-02-24T09:22:40.853Z,74.16
2023-02-24T09:25:21.795Z,73.56
2023-02-24T09:27:56.322Z,73.03
2023-02-24T09:30:37.052Z,72.66
2023-02-24T09:33:18.877Z,72.57
2023-02-24T09:35:48.653Z,72.55
2023-02-24T09:38:18.856Z,71.97
2023-02-24T09:40:52.321Z,71.51
2023-02-24T09:43:25.288Z,71.04
2023-02-24T09:46:01.929Z,70.81
2023-02-24T09:48:44.651Z,69.88
2023-02-24T09:51:21.939Z,69.94
2023-02-24T09:53:56.762Z,69.64
2023-02-24T09:56:37.257Z,69.44
2023-02-24T09:59:26.460Z,70.17
2023-02-24T10:02:03.662Z,70.90
2023-02-24T10:04:49.180Z,70.46
2023-02-24T10:07:19.192Z,70.14
2023-02-24T10:09:54.318Z,70.70
2023-02-24T10:12:28.908Z,70.99
2023-02-24T10:15:17.434Z,70.92
2023-02-24T10:17:50.196Z,70.99
2023-02-24T10:20:31.044Z,70.83
2023-02-24T10:23:04.298Z,71.64
2023-02-24T10:25:53.970Z,70.02
2023-02-24T10:28:36.044Z,70.10
2023-02-24T10:31:24.807Z,69.92
2023-02-24T10:33:57.995Z,69.80
2023-02-24T10:36:35.113Z,70.62
2023-02-24T10:39:08.606Z,70.20
2023-02-24T10:41:45.976Z,69.53
2023-02-24T10:44:20.511Z,69.27
2023-02-24T10:47:11.232Z,67.75
2023-02-24T10:49:50.807Z,66.86
2023-02-24T10:52:36.598Z,67.99
2023-02-24T10:55:24.272Z,64.05
2023-02-24T10:58:00.592Z,65.26
2023-02-24T11:00:51.731Z,61.56
2023-02-24T11:03:36.111Z,60.62
2023-02-24T11:06:30.416Z,62.89
2023-02-24T11:09:19.164Z,59.59
2023-02-24T11:12:06.475Z,60.67
2023-02-24T11:15:08.934Z,63.05
2023-02-24T11:17:39.307Z,63.38
2023-02-24T11:20:22.773Z,63.24
2023-02-24T11:22:55.845Z,63.95
2023-02-24T11:25:27.504Z,63.42
2023-02-24T11:27:57.072Z,63.80
2023-02-24T11:30:41.060Z,63.19
2023-02-24T11:33:22.212Z,63.12
2023-02-24T11:36:05.256Z,63.42
2023-02-24T11:38:39.278Z,63.23
2023-02-24T11:41:16.055Z,62.74
2023-02-24T11:43:48.934Z,63.37
2023-02-24T11:46:22.123Z,63.34
2023-02-24T11:48:57.038Z,62.93
2023-02-24T11:51:30.688Z,63.05
2023-02-24T11:54:03.049Z,63.55
2023-02-24T11:56:35.222Z,63.06
2023-02-24T11:59:08.851Z,58.55
2023-02-24T12:01:42.429Z,57.39
2023-02-24T12:04:18.702Z,58.93
2023-02-24T12:06:56.203Z,60.80
2023-02-24T12:09:31.807Z,60.05
2023-02-24T12:12:04.333Z,59.34
2023-02-24T12:14:37.401Z,59.28
2023-02-24T12:17:18.018Z,57.60
2023-02-24T12:20:05.643Z,57.09
2023-02-24T12:22:46.135Z,56.21
2023-02-24T12:25:16.729Z,57.52
2023-02-24T12:27:58.825Z,56.56
2023-02-24T12:30:38.790Z,56.63
2023-02-24T12:33:31.010Z,55.82
2023-02-24T12:36:06.181Z,55.22
2023-02-24T12:38:46.268Z,55.44
2023-02-24T12:41:29.260Z,55.40
2023-02-24T12:44:03.580Z,56.13
2023-02-24T12:46:36.972Z,55.04
2023-02-24T12:49:26.030Z,53.53
2023-02-24T12:52:07.606Z,51.90
2023-02-24T12:54:44.935Z,51.01
2023-02-24T12:57:19.574Z,49.92
2023-02-24T12:59:48.448Z,48.52
2023-02-24T13:02:29.159Z,48.58
2023-02-24T13:05:06.035Z,49.28
2023-02-24T13:07:49.548Z,48.68
2023-02-24T13:10:33.843Z,49.24
2023-02-24T13:13:12.929Z,47.99
2023-02-24T13:15:51.190Z,48.21
2023-02-24T13:18:25.475Z,48.43
2023-02-24T13:21:04.957Z,48.13
2023-02-24T13:23:33.240Z,47.58
2023-02-24T13:26:02.658Z,47.36
2023-02-24T13:28:33.320Z,48.71
2023-02-24T13:31:03.732Z,46.66
2023-02-24T13:33:34.356Z,46.04
2023-02-24T13:36:14.749Z,46.88
2023-02-24T13:38:44.680Z,47.73
2023-02-24T13:41:37.872Z,45.88
2023-02-24T13:44:22.063Z,44.39
2023-02-24T13:46:59.498Z,44.09
2023-02-24T13:49:38.268Z,43.56
2023-02-24T13:52:21.440Z,44.08
2023-02-24T13:55:05.497Z,44.24
2023-02-24T13:57:49.078Z,45.25
2023-02-24T14:00:28.502Z,44.86
2023-02-24T14:02:57.677Z,45.56
2023-02-24T14:05:30.089Z,45.82
2023-02-24T14:07:58.992Z,45.32
2023-02-24T14:10:29.559Z,45.48
2023-02-24T14:13:05.145Z,44.55
2023-02-24T14:15:34.690Z,44.40
2023-02-24T14:18:04.058Z,43.62
2023-02-24T14:20:34.652Z,44.37
2023-02-24T14:23:04.012Z,44.38
2023-02-24T14:25:38.504Z,44.05
2023-02-24T14:28:08.123Z,45.18
2023-02-24T14:30:38.466Z,45.22
2023-02-24T14:33:08.523Z,44.29
2023-02-24T14:35:40.476Z,43.62
2023-02-24T14:38:18.532Z,44.71
2023-02-24T14:40:48.912Z,45.25
2023-02-24T14:43:18.168Z,45.86
2023-02-24T14:45:50.532Z,47.11
2023-02-24T14:48:24.654Z,47.22
2023-02-24T14:50:53.940Z,46.29
2023-02-24T14:53:25.009Z,46.79
2023-02-24T14:55:57.090Z,46.55
2023-02-24T14:58:31.152Z,46.52
2023-02-24T15:01:04.024Z,46.32
2023-02-24T15:03:47.545Z,46.71
2023-02-24T15:06:23.832Z,45.93
2023-02-24T15:08:59.445Z,45.21
2023-02-24T15:11:29.832Z,46.58
2023-02-24T15:14:01.625Z,46.15
2023-02-24T15:16:34.786Z,47.17
2023-02-24T15:19:03.039Z,48.11
2023-02-24T15:21:33.260Z,48.79
2023-02-24T15:24:03.127Z,47.77
2023-02-24T15:26:33.276Z,48.32
2023-02-24T15:29:04.300Z,48.48
2023-02-24T15:31:32.403Z,48.78
2023-02-24T15:34:02.169Z,49.36
2023-02-24T15:36:33.897Z,48.53
2023-02-24T15:39:04.765Z,48.44
2023-02-24T15:41:43.896Z,48.00
2023-02-24T15:44:27.645Z,47.52
2023-02-24T15:46:56.356Z,47.37
2023-02-24T15:49:24.374Z,47.38
2023-02-24T15:51:54.508Z,48.01
2023-02-24T15:54:29.891Z,48.11
2023-02-24T15:56:59.142Z,48.11
2023-02-24T15:59:29.291Z,48.55
2023-02-24T16:01:57.490Z,48.59
2023-02-24T16:04:27.592Z,49.33
2023-02-24T16:06:58.463Z,49.76
2023-02-24T16:09:33.668Z,49.96
2023-02-24T16:12:03.646Z,50.38
2023-02-24T16:14:34.220Z,50.07
2023-02-24T16:17:05.291Z,49.16
2023-02-24T16:19:33.225Z,49.11
2023-02-24T16:22:01.163Z,49.45
2023-02-24T16:24:29.226Z,49.99
2023-02-24T16:26:57.221Z,49.88
2023-02-24T16:29:25.302Z,50.48
2023-02-24T16:31:54.839Z,50.46
2023-02-24T16:34:22.856Z,51.02
2023-02-24T16:36:51.895Z,51.71
2023-02-24T16:39:19.931Z,52.22
2023-02-24T16:41:47.916Z,52.12
2023-02-24T16:44:15.762Z,52.59
2023-02-24T16:46:45.539Z,52.67
2023-02-24T16:49:19.852Z,52.62
2023-02-24T16:51:48.264Z,53.75
2023-02-24T16:54:16.292Z,53.88
2023-02-24T16:56:45.350Z,54.04
2023-02-24T16:59:13.358Z,53.99
2023-02-24T17:01:41.532Z,53.79
2023-02-24T17:04:11.272Z,53.87
2023-02-24T17:06:40.799Z,54.03
2023-02-24T17:09:08.946Z,54.13
2023-02-24T17:11:37.148Z,54.15
2023-02-24T17:14:05.161Z,54.20
2023-02-24T17:16:33.489Z,54.25
2023-02-24T17:19:01.646Z,55.11
2023-02-24T17:21:29.718Z,54.47
2023-02-24T17:23:59.215Z,54.57
2023-02-24T17:26:27.541Z,54.00
2023-02-24T17:28:55.707Z,54.80
2023-02-24T17:31:24.141Z,54.42
2023-02-24T17:33:52.391Z,55.01
2023-02-24T17:36:21.109Z,54.77
2023-02-24T17:38:49.561Z,54.06
2023-02-24T17:41:18.989Z,53.52
2023-02-24T17:43:47.171Z,53.67
2023-02-24T17:46:15.417Z,54.04
2023-02-24T17:48:43.498Z,53.96
2023-02-24T17:51:14.706Z,54.02
2023-02-24T17:53:43.031Z,54.58
2023-02-24T17:56:12.006Z,55.26
2023-02-24T17:58:42.162Z,55.78
2023-02-24T18:01:10.259Z,56.13
2023-02-24T18:03:38.509Z,55.64
2023-02-24T18:06:08.830Z,55.99
2023-02-24T18:08:37.905Z,55.62
2023-02-24T18:11:07.593Z,55.31
2023-02-24T18:13:36.057Z,54.52
2023-02-24T18:16:09.664Z,54.39
2023-02-24T18:18:38.068Z,53.87
2023-02-24T18:21:08.614Z,52.70
2023-02-24T18:23:38.304Z,52.67
2023-02-24T18:26:08.243Z,51.70
2023-02-24T18:28:36.711Z,52.03
2023-02-24T18:31:13.842Z,52.70
2023-02-24T18:33:42.051Z,52.81
2023-02-24T18:36:11.357Z,53.20
2023-02-24T18:38:39.607Z,54.49
2023-02-24T18:41:09.128Z,55.25
2023-02-24T18:43:37.441Z,56.62
2023-02-24T18:46:07.564Z,57.18
2023-02-24T18:48:37.626Z,57.99
2023-02-24T18:51:06.846Z,59.00
2023-02-24T18:53:37.017Z,59.32
2023-02-24T18:56:06.733Z,60.09
2023-02-24T18:58:35.064Z,60.99
2023-02-24T19:01:03.049Z,61.57
2023-02-24T19:03:31.029Z,62.21
2023-02-24T19:06:00.429Z,63.02
2023-02-24T19:08:28.507Z,64.42
2023-02-24T19:10:56.470Z,65.27
2023-02-24T19:13:25.180Z,66.08
2023-02-24T19:15:53.257Z,66.34
2023-02-24T19:18:21.372Z,66.51
2023-02-24T19:20:49.552Z,66.41
2023-02-24T19:23:18.928Z,67.43
2023-02-24T19:25:46.849Z,67.64
2023-02-24T19:28:14.677Z,67.23
2023-02-24T19:30:42.805Z,68.22
2023-02-24T19:33:10.909Z,69.51
2023-02-24T19:35:41.111Z,70.92
2023-02-24T19:38:09.458Z,71.93
2023-02-24T19:40:38.808Z,73.12
2023-02-24T19:43:06.794Z,73.89
2023-02-24T19:45:35.081Z,74.53
2023-02-24T19:48:03.023Z,75.53
2023-02-24T19:50:31.026Z,76.77
2023-02-24T19:52:58.942Z,75.90
2023-02-24T19:55:27.017Z,78.04
2023-02-24T19:57:56.445Z,79.33
2023-02-24T20:00:25.073Z,80.03
2023-02-24T20:02:53.437Z,81.47
2023-02-24T20:05:21.422Z,82.83
2023-02-24T20:07:49.581Z,83.38
2023-02-24T20:10:18.512Z,83.85
2023-02-24T20:12:46.430Z,84.91
2023-02-24T20:15:15.766Z,84.77
2023-02-24T20:17:43.626Z,83.86
2023-02-24T20:20:13.223Z,83.44
2023-02-24T20:22:41.414Z,83.56
2023-02-24T20:25:10.127Z,83.51
2023-02-24T20:27:38.122Z,83.05
2023-02-24T20:30:06.952Z,83.92
2023-02-24T20:32:36.294Z,83.59
2023-02-24T20:35:04.346Z,84.77
2023-02-24T20:37:32.313Z,84.65
2023-02-24T20:40:00.376Z,84.36
2023-02-24T20:42:29.081Z,84.33
2023-02-24T20:44:57.558Z,84.27
2023-02-24T20:47:26.101Z,84.46
2023-02-24T20:49:55.546Z,83.80
2023-02-24T20:52:23.904Z,84.42
2023-02-24T20:54:52.052Z,83.87
2023-02-24T20:57:20.110Z,83.68
2023-02-24T21:00:02.542Z,83.38
2023-02-24T21:02:31.101Z,84.08
2023-02-24T21:05:00.612Z,83.85
2023-02-24T21:07:28.618Z,83.58
2023-02-24T21:09:56.724Z,83.67
2023-02-24T21:12:24.768Z,83.91
2023-02-24T21:14:52.804Z,84.10
2023-02-24T21:17:20.869Z,83.82
2023-02-24T21:19:49.843Z,83.99
2023-02-24T21:22:19.217Z,83.52
2023-02-24T21:24:47.347Z,83.60
2023-02-24T21:27:15.293Z,83.36
2023-02-24T21:29:43.411Z,83.02
2023-02-24T21:32:11.453Z,81.98
2023-02-24T21:34:39.430Z,81.49
2023-02-24T21:37:07.413Z,81.72
2023-02-24T21:39:37.060Z,81.92
2023-02-24T21:42:05.191Z,81.65
2023-02-24T21:44:33.199Z,81.68
2023-02-24T21:47:01.018Z,82.01
2023-02-24T21:49:30.384Z,82.29
2023-02-24T21:51:58.285Z,82.19
2023-02-24T21:54:26.582Z,81.53
2023-02-24T21:56:55.924Z,80.79
2023-02-24T21:59:23.997Z,80.83
2023-02-24T22:01:51.999Z,80.23
2023-02-24T22:04:20.303Z,81.14
2023-02-24T22:06:48.272Z,80.88
2023-02-24T22:09:19.845Z,81.59
2023-02-24T22:11:49.402Z,80.60
2023-02-24T22:14:18.636Z,81.07
2023-02-24T22:16:46.439Z,80.51
2023-02-24T22:19:14.519Z,80.29
2023-02-24T22:21:42.969Z,79.65
2023-02-24T22:24:13.950Z,79.67
2023-02-24T22:26:42.604Z,80.04
2023-02-24T22:29:10.680Z,80.31
2023-02-24T22:31:43.422Z,79.84
2023-02-24T22:34:12.346Z,79.50
2023-02-24T22:36:40.087Z,79.66
2023-02-24T22:39:09.327Z,79.27
2023-02-24T22:41:38.184Z,79.68
2023-02-24T22:44:07.366Z,79.68
2023-02-24T22:46:37.125Z,78.12
2023-02-24T22:49:06.768Z,78.26
2023-02-24T22:51:34.915Z,78.63
2023-02-24T22:54:03.017Z,78.96
2023-02-24T22:56:31.867Z,78.34
2023-02-24T22:59:00.632Z,78.10
2023-02-24T23:01:29.980Z,78.12
2023-02-24T23:04:00.369Z,77.65
2023-02-24T23:06:30.112Z,77.52
2023-02-24T23:08:59.884Z,75.91
2023-02-24T23:11:30.611Z,75.79
2023-02-24T23:14:00.319Z,75.01
2023-02-24T23:16:31.665Z,74.97
2023-02-24T23:19:00.915Z,74.78
2023-02-24T23:21:34.942Z,75.67
2023-02-24T23:24:04.119Z,74.25
2023-02-24T23:26:33.049Z,74.95
2023-02-24T23:29:00.752Z,75.22
2023-02-24T23:31:29.664Z,75.56
2023-02-24T23:33:57.940Z,76.05
2023-02-24T23:36:26.724Z,76.02
2023-02-24T23:38:57.515Z,77.33
2023-02-24T23:41:25.400Z,76.96
2023-02-24T23:43:53.377Z,74.26
2023-02-24T23:46:21.536Z,74.76
2023-02-24T23:48:52.353Z,75.10
2023-02-24T23:51:20.607Z,75.78
2023-02-24T23:53:49.512Z,75.82
2023-02-24T23:56:20.599Z,76.08
2023-02-24T23:58:51.687Z,74.70
